Here is the Quick Look data you requested

The Data originates at the National Weather Service, and is made available here by the UAlbany Department of Atmospheric and Environmental Sciences

Surface Observations

KCVG 180052Z 10005KT 8SM BKN180 04/01 A3023 RMK AO2 SLP241 T00440011=
KCVG 180152Z 08005KT 7SM BKN180 04/01 A3023 RMK AO2 SLP240 T00440011=
KCVG 180252Z 06004KT 6SM HZ BKN180 04/02 A3023 RMK AO2 SLP241 T00440017 55001=
KCVG 180352Z 07005KT 6SM HZ BKN180 04/02 A3023 RMK AO2 SLP238 T00440017=
KCVG 180452Z 07006KT 6SM BR BKN180 03/01 A3022 RMK AO2 SLP237 T00330011
 400720022=
KCVG 180552Z 08005KT 6SM BR BKN200 03/01 A3021 RMK AO2 SLP234 T00280006 10050
 20028 58006=
KCVG 180652Z 07006KT 6SM BR SCT050 OVC220 03/01 A3021 RMK AO2 SLP233 T00280011=
KCVG 180752Z 08006KT 6SM BR OVC048 03/01 A3021 RMK AO2 SLP232 T00330011=
KCVG 180852Z 09007KT 6SM BR SCT044 OVC055 03/02 A3019 RMK AO2 SLP226 T00330017
 58008=
KCVG 180952Z 12005KT 6SM BR OVC050 03/01 A3018 RMK AO2 SLP221 T00280011=
KCVG 181052Z 11004KT 6SM BR BKN049 02/01 A3017 RMK AO2 SLP219 T00220006=
KCVG 181152Z 12006KT 6SM BR SCT250 02/01 A3016 RMK AO2 SLP217 T00220006 10033
 20022 56008=
KCVG 181252Z 14006KT 5SM BR FEW150 SCT250 02/01 A3017 RMK AO2 SLP221 T00170006=
KCVG 181352Z 15005KT 6SM BR SCT150 SCT250 04/02 A3018 RMK AO2 SLP221 T00390022=
KCVG 181452Z 20006KT 9SM FEW150 SCT250 07/03 A3017 RMK AO2 SLP218 T00670033
 50001=
KCVG 181552Z 00000KT 10SM FEW150 SCT250 09/04 A3017 RMK AO2 SLP216 T00890044=
KCVG 181652Z 23007KT 10SM FEW150 SCT250 10/05 A3016 RMK AO2 SLP213 T01000050=
KCVG 181752Z 25009KT 10SM FEW150 FEW250 12/06 A3014 RMK AO2 SLP206 T01170056
 10117 20017 58010=
KCVG 181852Z 26008KT 10SM FEW030 FEW150 SCT250 13/06 A3012 RMK AO2 SLP200
 T01280061=
KCVG 181927Z 30008KT 10SM BKN028 OVC033 12/06 A3012 RMK AO2 T01220061=
KCVG 181952Z 29003KT 10SM BKN028 OVC032 12/06 A3011 RMK AO2 SLP198 T01170061=
KCVG 182052Z 33008KT 9SM BKN027 OVC070 11/05 A3011 RMK AO2 SLP198 T01110050
 56007=
KCVG 182152Z 34006KT 8SM BKN028 OVC035 10/05 A3011 RMK AO2 SLP197 T01000050=
KCVG 182216Z 34005KT 8SM OVC032 09/04 A3012 RMK AO2 T00940044=
KCVG 182252Z 34007KT 9SM OVC028 09/04 A3012 RMK AO2 SLP201 T00890044=
KCVG 182352Z 34005KT 8SM OVC029 08/04 A3013 RMK AO2 SLP205 T00830039 10128
 20083 53007=
KCVG 190052Z 34008KT 7SM OVC026 08/04 A3015 RMK AO2 SLP211 T00780039=